KLM321 LEMD-EHAM
Flight info
| Callsign | KLM321 |
|---|---|
| Flight time | N/A |
| Altitude | 38000 |
| Route | RBO DCT OSTIX N867 DGO N858 ABRIX DCT CNA DCT ADABI DCT BOKNO UN858 VANAD UN874 BAMES UT191 PODEM UN873 BAZOS DCT LUMIL DCT BELOB UY873 DENUT |
| Aircraft | B77W/H-SDE1E2E3FGHIJ2J3J4J5M1RWXY/LB1D1 |
Departure
| Time | 2026-05-06 14:36 |
|---|---|
| Airport | Adolfo Suárez Madrid–Barajas Airport (LEMD) |
Arrival
| Time | N/A |
|---|---|
| Airport | Amsterdam Airport Schiphol (EHAM) |
| Time | Latitude | Longitude | Altitude | Speed | Heading |
|---|---|---|---|---|---|
| 2026-05-06 14:35 | 40.62125 | -3.50860 | 7848 ft | 276 kts | 41° |
| 2026-05-06 14:36 | 40.63596 | -3.49187 | 8896 ft | 283 kts | 40° |
| 2026-05-06 14:36 | 40.65095 | -3.47489 | 10075 ft | 286 kts | 40° |
| 2026-05-06 14:36 | 40.66639 | -3.45748 | 10913 ft | 302 kts | 40° |
| 2026-05-06 14:36 | 40.68323 | -3.43856 | 11246 ft | 335 kts | 40° |
| 2026-05-06 14:37 | 40.70178 | -3.41776 | 11744 ft | 359 kts | 40° |
| 2026-05-06 14:37 | 40.72111 | -3.39610 | 12743 ft | 369 kts | 40° |
| 2026-05-06 14:37 | 40.74092 | -3.37393 | 13858 ft | 376 kts | 40° |
| 2026-05-06 14:37 | 40.76099 | -3.35143 | 14888 ft | 382 kts | 40° |
| 2026-05-06 14:38 | 40.78140 | -3.32853 | 15969 ft | 387 kts | 40° |
| 2026-05-06 14:38 | 40.80211 | -3.30530 | 17001 ft | 394 kts | 39° |
| 2026-05-06 14:38 | 40.82320 | -3.28165 | 18023 ft | 401 kts | 39° |
| 2026-05-06 14:38 | 40.84452 | -3.25842 | 18857 ft | 404 kts | 34° |
| 2026-05-06 14:39 | 40.86984 | -3.24212 | 19565 ft | 409 kts | 12° |
| 2026-05-06 14:39 | 40.89781 | -3.23569 | 20302 ft | 412 kts | 6° |
| 2026-05-06 14:39 | 40.92645 | -3.22992 | 21148 ft | 419 kts | 6° |
| 2026-05-06 14:39 | 40.95536 | -3.22386 | 22086 ft | 423 kts | 6° |
| 2026-05-06 14:40 | 40.98466 | -3.21755 | 23002 ft | 428 kts | 6° |
| 2026-05-06 14:40 | 41.01421 | -3.21106 | 23771 ft | 434 kts | 6° |
| 2026-05-06 14:40 | 41.04419 | -3.20438 | 24456 ft | 439 kts | 6° |
| 2026-05-06 14:40 | 41.07452 | -3.19757 | 25172 ft | 444 kts | 6° |
| 2026-05-06 14:41 | 41.10511 | -3.19067 | 25873 ft | 448 kts | 6° |
| 2026-05-06 14:41 | 41.13604 | -3.18366 | 26550 ft | 453 kts | 6° |
| 2026-05-06 14:41 | 41.16732 | -3.17658 | 27225 ft | 458 kts | 6° |
| 2026-05-06 14:41 | 41.19888 | -3.16944 | 27880 ft | 462 kts | 6° |
| 2026-05-06 14:42 | 41.23070 | -3.16223 | 28509 ft | 466 kts | 6° |
| 2026-05-06 14:42 | 41.26292 | -3.15493 | 29136 ft | 471 kts | 6° |
| 2026-05-06 14:42 | 41.29506 | -3.14763 | 29724 ft | 475 kts | 6° |
| 2026-05-06 14:42 | 41.32767 | -3.14022 | 30229 ft | 479 kts | 6° |
| 2026-05-06 14:43 | 41.36064 | -3.13272 | 30693 ft | 482 kts | 6° |
| 2026-05-06 14:43 | 41.39393 | -3.12514 | 31150 ft | 485 kts | 6° |
| 2026-05-06 14:43 | 41.42731 | -3.11753 | 31597 ft | 487 kts | 6° |
| 2026-05-06 14:43 | 41.46073 | -3.10989 | 32142 ft | 487 kts | 6° |
| 2026-05-06 14:44 | 41.49404 | -3.10228 | 32755 ft | 484 kts | 6° |
| 2026-05-06 14:44 | 41.52722 | -3.09471 | 33362 ft | 483 kts | 5° |
| 2026-05-06 14:44 | 41.56028 | -3.08723 | 33900 ft | 482 kts | 5° |
| 2026-05-06 14:45 | 41.62650 | -3.07228 | 34704 ft | 483 kts | 5° |
| 2026-05-06 14:45 | 41.65964 | -3.06477 | 35082 ft | 484 kts | 5° |
| 2026-05-06 14:45 | 41.69284 | -3.05724 | 35471 ft | 484 kts | 6° |
| 2026-05-06 14:45 | 41.72605 | -3.04968 | 35857 ft | 484 kts | 6° |
| 2026-05-06 14:46 | 41.75929 | -3.04209 | 36241 ft | 484 kts | 6° |
| 2026-05-06 14:46 | 41.79252 | -3.03447 | 36600 ft | 485 kts | 6° |
| 2026-05-06 14:46 | 41.82580 | -3.02681 | 36995 ft | 485 kts | 6° |
| 2026-05-06 14:46 | 41.85903 | -3.01915 | 37358 ft | 485 kts | 6° |
| 2026-05-06 14:47 | 41.89231 | -3.01147 | 37735 ft | 485 kts | 6° |
| 2026-05-06 14:47 | 41.92574 | -3.00376 | 37941 ft | 489 kts | 6° |
| 2026-05-06 14:47 | 41.95943 | -2.99599 | 37966 ft | 492 kts | 6° |
| 2026-05-06 14:48 | 42.02672 | -2.98041 | 37977 ft | 486 kts | 6° |
| 2026-05-06 14:48 | 42.09261 | -2.96510 | 37985 ft | 482 kts | 6° |
| 2026-05-06 14:49 | 42.15863 | -2.94978 | 37985 ft | 481 kts | 6° |
| 2026-05-06 14:49 | 42.22462 | -2.93442 | 37998 ft | 480 kts | 6° |
| 2026-05-06 14:50 | 42.29057 | -2.91906 | 37995 ft | 481 kts | 6° |
| 2026-05-06 14:50 | 42.35654 | -2.90361 | 38015 ft | 481 kts | 6° |
| 2026-05-06 14:51 | 42.42262 | -2.88699 | 38004 ft | 485 kts | 11° |
| 2026-05-06 14:51 | 42.48664 | -2.85620 | 37992 ft | 491 kts | 22° |
| 2026-05-06 14:52 | 42.54663 | -2.81232 | 37999 ft | 494 kts | 26° |
| 2026-05-06 14:52 | 42.60632 | -2.76608 | 38029 ft | 494 kts | 27° |
| 2026-05-06 14:53 | 42.66618 | -2.72003 | 38014 ft | 494 kts | 26° |
| 2026-05-06 14:53 | 42.72612 | -2.67439 | 38020 ft | 493 kts | 26° |
| 2026-05-06 14:54 | 42.78602 | -2.62885 | 38026 ft | 493 kts | 26° |
| 2026-05-06 14:54 | 42.84590 | -2.58324 | 38020 ft | 493 kts | 26° |
| 2026-05-06 14:55 | 42.90569 | -2.53754 | 38024 ft | 492 kts | 26° |
| 2026-05-06 14:55 | 42.96529 | -2.49189 | 38031 ft | 491 kts | 26° |
| 2026-05-06 14:56 | 43.02484 | -2.44616 | 38024 ft | 490 kts | 26° |
| 2026-05-06 14:56 | 43.08433 | -2.40039 | 38040 ft | 490 kts | 26° |
| 2026-05-06 14:57 | 43.14352 | -2.35475 | 38033 ft | 491 kts | 26° |
| 2026-05-06 14:57 | 43.20289 | -2.30886 | 38047 ft | 490 kts | 26° |
| 2026-05-06 14:58 | 43.26219 | -2.26291 | 38043 ft | 489 kts | 26° |
| 2026-05-06 14:58 | 43.32145 | -2.21690 | 38031 ft | 489 kts | 26° |
| 2026-05-06 14:59 | 43.38062 | -2.17086 | 38039 ft | 489 kts | 27° |
| 2026-05-06 14:59 | 43.43978 | -2.12471 | 38038 ft | 489 kts | 27° |
| 2026-05-06 15:00 | 43.49895 | -2.07845 | 38035 ft | 489 kts | 27° |
| 2026-05-06 15:00 | 43.55815 | -2.03206 | 38031 ft | 489 kts | 27° |
| 2026-05-06 15:01 | 43.61729 | -1.98562 | 38022 ft | 489 kts | 27° |
| 2026-05-06 15:01 | 43.67605 | -1.93937 | 38018 ft | 489 kts | 27° |
| 2026-05-06 15:02 | 43.73520 | -1.89271 | 38015 ft | 490 kts | 27° |
| 2026-05-06 15:02 | 43.79439 | -1.84590 | 38005 ft | 490 kts | 27° |
| 2026-05-06 15:03 | 43.85354 | -1.79900 | 38002 ft | 490 kts | 27° |
| 2026-05-06 15:03 | 43.91267 | -1.75201 | 37999 ft | 490 kts | 27° |
| 2026-05-06 15:04 | 43.97178 | -1.70493 | 37994 ft | 490 kts | 27° |
| 2026-05-06 15:04 | 44.03062 | -1.65796 | 37993 ft | 490 kts | 27° |
| 2026-05-06 15:05 | 44.08975 | -1.61065 | 37991 ft | 489 kts | 27° |
| 2026-05-06 15:05 | 44.14871 | -1.56336 | 37987 ft | 489 kts | 27° |
| 2026-05-06 15:06 | 44.20763 | -1.51599 | 37984 ft | 489 kts | 28° |
| 2026-05-06 15:06 | 44.26655 | -1.46851 | 37987 ft | 489 kts | 28° |
| 2026-05-06 15:07 | 44.32542 | -1.42096 | 37989 ft | 488 kts | 28° |
| 2026-05-06 15:07 | 44.38419 | -1.37338 | 37992 ft | 488 kts | 28° |
| 2026-05-06 15:08 | 44.44294 | -1.32571 | 37994 ft | 488 kts | 28° |
| 2026-05-06 15:08 | 44.50128 | -1.27826 | 37983 ft | 488 kts | 28° |
| 2026-05-06 15:09 | 44.55998 | -1.23040 | 37993 ft | 488 kts | 28° |
| 2026-05-06 15:09 | 44.61862 | -1.18248 | 37978 ft | 488 kts | 28° |
| 2026-05-06 15:10 | 44.67732 | -1.13441 | 37970 ft | 488 kts | 28° |
| 2026-05-06 15:10 | 44.73558 | -1.08656 | 37965 ft | 487 kts | 28° |
| 2026-05-06 15:11 | 44.79417 | -1.03834 | 37964 ft | 487 kts | 28° |
| 2026-05-06 15:11 | 44.85272 | -0.99005 | 37971 ft | 491 kts | 28° |
| 2026-05-06 15:12 | 44.91290 | -0.94031 | 37978 ft | 504 kts | 28° |
| 2026-05-06 15:12 | 44.97363 | -0.88997 | 37975 ft | 513 kts | 28° |
| 2026-05-06 15:13 | 45.03533 | -0.83868 | 37962 ft | 516 kts | 28° |
| 2026-05-06 15:13 | 45.09738 | -0.78695 | 37965 ft | 517 kts | 28° |
| 2026-05-06 15:14 | 45.15940 | -0.73514 | 37957 ft | 517 kts | 29° |
| 2026-05-06 15:14 | 45.22141 | -0.68321 | 37955 ft | 517 kts | 29° |
| 2026-05-06 15:15 | 45.28322 | -0.63131 | 37960 ft | 516 kts | 29° |
| 2026-05-06 15:15 | 45.34507 | -0.57924 | 37944 ft | 516 kts | 29° |
| 2026-05-06 15:16 | 45.40669 | -0.52723 | 37947 ft | 514 kts | 29° |
| 2026-05-06 15:16 | 45.46777 | -0.47555 | 37942 ft | 513 kts | 29° |
| 2026-05-06 15:17 | 45.52915 | -0.42348 | 37938 ft | 513 kts | 29° |
| 2026-05-06 15:17 | 45.59042 | -0.37137 | 37940 ft | 512 kts | 29° |
| 2026-05-06 15:18 | 45.65157 | -0.31923 | 37940 ft | 511 kts | 29° |
| 2026-05-06 15:18 | 45.71223 | -0.26541 | 37941 ft | 513 kts | 31° |
| 2026-05-06 15:19 | 45.77220 | -0.20957 | 37928 ft | 515 kts | 32° |
| 2026-05-06 15:19 | 45.83179 | -0.15396 | 37934 ft | 513 kts | 31° |
| 2026-05-06 15:20 | 45.89176 | -0.09831 | 37927 ft | 512 kts | 31° |
| 2026-05-06 15:20 | 45.94150 | -0.05219 | 37941 ft | 512 kts | 31° |
| 2026-05-06 15:21 | 46.00139 | 0.00345 | 37929 ft | 512 kts | 31° |
| 2026-05-06 15:21 | 46.06112 | 0.05911 | 37908 ft | 512 kts | 31° |
| 2026-05-06 15:22 | 46.12095 | 0.11504 | 37932 ft | 512 kts | 32° |
| 2026-05-06 15:22 | 46.18073 | 0.17107 | 37933 ft | 512 kts | 32° |
| 2026-05-06 15:23 | 46.24049 | 0.22723 | 37912 ft | 512 kts | 32° |
| 2026-05-06 15:23 | 46.30019 | 0.28348 | 37928 ft | 513 kts | 32° |
| 2026-05-06 15:24 | 46.35961 | 0.33961 | 37914 ft | 514 kts | 32° |
| 2026-05-06 15:24 | 46.41945 | 0.39630 | 37936 ft | 513 kts | 32° |
| 2026-05-06 15:25 | 46.47928 | 0.45312 | 37934 ft | 513 kts | 32° |
| 2026-05-06 15:25 | 46.54000 | 0.50745 | 37933 ft | 512 kts | 25° |
| 2026-05-06 15:26 | 46.60586 | 0.54625 | 37935 ft | 510 kts | 15° |
| 2026-05-06 15:26 | 46.67481 | 0.57026 | 37937 ft | 509 kts | 11° |
| 2026-05-06 15:27 | 46.74365 | 0.59165 | 37933 ft | 509 kts | 11° |
| 2026-05-06 15:27 | 46.81294 | 0.61402 | 37931 ft | 510 kts | 11° |
| 2026-05-06 15:28 | 46.88210 | 0.63699 | 37942 ft | 510 kts | 12° |
| 2026-05-06 15:28 | 46.95133 | 0.66008 | 37939 ft | 510 kts | 12° |
| 2026-05-06 15:29 | 47.02050 | 0.68313 | 37939 ft | 510 kts | 11° |
| 2026-05-06 15:29 | 47.09048 | 0.69828 | 37951 ft | 508 kts | 3° |
| 2026-05-06 15:30 | 47.16067 | 0.70479 | 37937 ft | 508 kts | 2° |
| 2026-05-06 15:30 | 47.23120 | 0.71121 | 37942 ft | 507 kts | 2° |
| 2026-05-06 15:31 | 47.30169 | 0.71845 | 37941 ft | 507 kts | 3° |
| 2026-05-06 15:31 | 47.37206 | 0.72593 | 37940 ft | 507 kts | 3° |
| 2026-05-06 15:32 | 47.47758 | 0.73830 | 37929 ft | 507 kts | 7° |
| 2026-05-06 15:32 | 47.54640 | 0.76172 | 37935 ft | 509 kts | 17° |
| 2026-05-06 15:33 | 47.61351 | 0.79556 | 37935 ft | 509 kts | 18° |
| 2026-05-06 15:33 | 47.68058 | 0.82962 | 37942 ft | 510 kts | 18° |
| 2026-05-06 15:34 | 47.74758 | 0.86280 | 37934 ft | 510 kts | 17° |
| 2026-05-06 15:34 | 47.81492 | 0.89602 | 37931 ft | 510 kts | 17° |
| 2026-05-06 15:35 | 47.88223 | 0.92962 | 37946 ft | 510 kts | 18° |
| 2026-05-06 15:35 | 47.94955 | 0.96375 | 37930 ft | 510 kts | 18° |
| 2026-05-06 15:36 | 48.01672 | 0.99788 | 37936 ft | 510 kts | 18° |
| 2026-05-06 15:36 | 48.08389 | 1.03205 | 37928 ft | 509 kts | 18° |
| 2026-05-06 15:37 | 48.15091 | 1.06622 | 37929 ft | 509 kts | 18° |
| 2026-05-06 15:37 | 48.21754 | 1.10028 | 37928 ft | 509 kts | 18° |
| 2026-05-06 15:38 | 48.28473 | 1.13453 | 37930 ft | 510 kts | 18° |
| 2026-05-06 15:38 | 48.35193 | 1.16879 | 37929 ft | 510 kts | 18° |
| 2026-05-06 15:39 | 48.41924 | 1.20323 | 37930 ft | 511 kts | 18° |
| 2026-05-06 15:39 | 48.48663 | 1.23784 | 37930 ft | 511 kts | 18° |
| 2026-05-06 15:40 | 48.55398 | 1.27251 | 37928 ft | 511 kts | 18° |
| 2026-05-06 15:40 | 48.62107 | 1.30648 | 37928 ft | 512 kts | 17° |
| 2026-05-06 15:41 | 48.68866 | 1.34041 | 37925 ft | 512 kts | 17° |
| 2026-05-06 15:41 | 48.75624 | 1.37454 | 37924 ft | 512 kts | 17° |
| 2026-05-06 15:42 | 48.82378 | 1.40884 | 37927 ft | 512 kts | 17° |
| 2026-05-06 15:42 | 48.89137 | 1.44327 | 37929 ft | 512 kts | 17° |
| 2026-05-06 15:43 | 48.92514 | 1.46050 | 37928 ft | 512 kts | 17° |
| 2026-05-06 15:43 | 49.03276 | 1.50131 | 37927 ft | 510 kts | 7° |
| 2026-05-06 15:44 | 49.10313 | 1.51626 | 37937 ft | 510 kts | 7° |
| 2026-05-06 15:44 | 49.17344 | 1.53226 | 37942 ft | 511 kts | 7° |
| 2026-05-06 15:45 | 49.24254 | 1.55639 | 37948 ft | 512 kts | 21° |
| 2026-05-06 15:45 | 49.30390 | 1.61183 | 37940 ft | 515 kts | 40° |
| 2026-05-06 15:46 | 49.35553 | 1.68804 | 37940 ft | 516 kts | 44° |
| 2026-05-06 15:46 | 49.40633 | 1.76507 | 37942 ft | 516 kts | 44° |
| 2026-05-06 15:47 | 49.45809 | 1.84130 | 37939 ft | 516 kts | 43° |
| 2026-05-06 15:47 | 49.51012 | 1.91723 | 37943 ft | 515 kts | 41° |
| 2026-05-06 15:48 | 49.56640 | 1.98529 | 37945 ft | 514 kts | 35° |
| 2026-05-06 15:48 | 49.62441 | 2.04967 | 37940 ft | 514 kts | 35° |
| 2026-05-06 15:49 | 49.68228 | 2.11427 | 37938 ft | 514 kts | 35° |
| 2026-05-06 15:49 | 49.73029 | 2.16864 | 37935 ft | 514 kts | 36° |
| 2026-05-06 15:50 | 49.79770 | 2.24562 | 37919 ft | 515 kts | 36° |
| 2026-05-06 15:50 | 49.84554 | 2.30045 | 37922 ft | 515 kts | 36° |
| 2026-05-06 15:51 | 49.90317 | 2.36661 | 37917 ft | 515 kts | 36° |
| 2026-05-06 15:51 | 49.97013 | 2.44372 | 37913 ft | 516 kts | 36° |
| 2026-05-06 15:52 | 50.01808 | 2.49909 | 37916 ft | 516 kts | 36° |
| 2026-05-06 15:52 | 50.07567 | 2.56580 | 37914 ft | 516 kts | 36° |
| 2026-05-06 15:53 | 50.13332 | 2.63277 | 37915 ft | 516 kts | 36° |
| 2026-05-06 15:53 | 50.19096 | 2.69995 | 37914 ft | 517 kts | 36° |
| 2026-05-06 15:54 | 50.24846 | 2.76718 | 37915 ft | 517 kts | 36° |
| 2026-05-06 15:54 | 50.30607 | 2.83475 | 37912 ft | 517 kts | 36° |
| 2026-05-06 15:55 | 50.36326 | 2.90201 | 37914 ft | 517 kts | 36° |
| 2026-05-06 15:55 | 50.42113 | 2.96885 | 37913 ft | 516 kts | 33° |
| 2026-05-06 15:56 | 50.48343 | 3.02450 | 37904 ft | 515 kts | 27° |
| 2026-05-06 15:56 | 50.54692 | 3.07662 | 37918 ft | 515 kts | 27° |
| 2026-05-06 15:57 | 50.61031 | 3.12978 | 37908 ft | 516 kts | 27° |
| 2026-05-06 15:57 | 50.67339 | 3.18358 | 37913 ft | 515 kts | 27° |
| 2026-05-06 15:58 | 50.73658 | 3.23731 | 37909 ft | 515 kts | 27° |
| 2026-05-06 15:58 | 50.80001 | 3.29014 | 37907 ft | 516 kts | 27° |
| 2026-05-06 15:59 | 50.86310 | 3.34264 | 37910 ft | 516 kts | 27° |
| 2026-05-06 15:59 | 50.92655 | 3.39581 | 37914 ft | 516 kts | 27° |
| 2026-05-06 16:00 | 50.99008 | 3.44931 | 37907 ft | 516 kts | 27° |
| 2026-05-06 16:00 | 51.05359 | 3.50297 | 37909 ft | 516 kts | 27° |
| 2026-05-06 16:01 | 51.11708 | 3.55676 | 37908 ft | 517 kts | 27° |
| 2026-05-06 16:01 | 51.18055 | 3.61071 | 37905 ft | 517 kts | 27° |
| 2026-05-06 16:02 | 51.24604 | 3.65647 | 37899 ft | 513 kts | 10° |
| 2026-05-06 16:02 | 51.28098 | 3.66075 | 37905 ft | 507 kts | 356° |
| 2026-05-06 16:02 | 51.31622 | 3.65849 | 37913 ft | 508 kts | 355° |
| 2026-05-06 16:03 | 51.38702 | 3.65379 | 37908 ft | 511 kts | 356° |
| 2026-05-06 16:03 | 51.45776 | 3.65085 | 37682 ft | 496 kts | 357° |